Time;durP1;ratioP1;P1;durP2;ratioP2;P2;SDS_P1;SDS_P2;PMS_P1;PMS_P2;Temp;Humidity;BMP_temperature;BMP_pressure;BME280_temperature;BME280_humidity;BME280_pressure;Samples;Min_cycle;Max_cycle;Signal;HPM_P1;HPM_P2
2020/12/09 00:01:54;;;;;;;59.55;24.40;;;;;;;5.31;77.64;100060.34;5083853;28;20037;-63
2020/12/09 00:04:20;;;;;;;67.17;26.77;;;;;;;5.44;78.34;100071.53;5084296;28;20058;-63
2020/12/09 00:06:47;;;;;;;61.78;25.70;;;;;;;5.36;78.22;100060.81;5083974;28;20028;-63
2020/12/09 00:09:18;;;;;;;56.70;23.48;;;;;;;5.41;78.45;100074.41;5084234;28;20033;-63
2020/12/09 00:11:44;;;;;;;58.97;25.88;;;;;;;5.35;79.53;100077.53;5083833;28;20024;-63
2020/12/09 00:14:10;;;;;;;61.13;25.90;;;;;;;5.35;79.06;100088.03;5084119;28;20191;-63
2020/12/09 00:16:37;;;;;;;148.77;49.80;;;;;;;5.32;80.27;100090.91;5083780;28;20028;-63
2020/12/09 00:19:04;;;;;;;168.53;57.40;;;;;;;5.45;79.67;100094.22;5083452;28;20058;-63
2020/12/09 00:21:31;;;;;;;134.20;44.58;;;;;;;5.47;79.49;100080.13;5083603;28;20082;-63
2020/12/09 00:23:57;;;;;;;113.28;44.22;;;;;;;5.63;79.32;100078.81;5083735;28;20074;-63
2020/12/09 00:26:24;;;;;;;51.63;22.47;;;;;;;5.80;76.81;100061.69;5083546;28;20028;-63
2020/12/09 00:28:51;;;;;;;50.17;21.00;;;;;;;5.48;78.44;100071.31;5083625;28;20045;-63
2020/12/09 00:31:19;;;;;;;39.97;17.77;;;;;;;5.27;78.97;100076.47;5083552;28;20036;-63
2020/12/09 00:33:46;;;;;;;47.87;19.63;;;;;;;5.07;81.44;100076.19;5083743;28;20032;-63
2020/12/09 00:36:15;;;;;;;49.97;20.67;;;;;;;5.20;81.49;100094.47;5083462;28;20032;-63
2020/12/09 00:38:41;;;;;;;67.17;25.53;;;;;;;5.38;81.45;100089.59;5083515;28;20045;-63
2020/12/09 00:41:07;;;;;;;80.17;29.83;;;;;;;5.43;80.80;100083.00;5083258;28;20048;-63
2020/12/09 00:43:32;;;;;;;59.50;24.43;;;;;;;5.56;79.91;100087.28;5083474;28;20050;-63
2020/12/09 00:45:58;;;;;;;57.63;23.17;;;;;;;5.59;80.71;100101.03;5098082;28;20031;-63
2020/12/09 00:48:24;;;;;;;78.17;29.53;;;;;;;5.54;80.62;100095.28;5083047;28;20052;-63
2020/12/09 00:50:49;;;;;;;79.65;31.00;;;;;;;5.42;82.06;100093.63;5082124;28;20059;-63
2020/12/09 00:53:15;;;;;;;103.85;38.78;;;;;;;5.51;81.49;100090.28;5083206;28;20040;-63
2020/12/09 00:55:40;;;;;;;104.07;40.07;;;;;;;5.72;80.99;100093.00;5083222;28;20028;-63
2020/12/09 00:58:06;;;;;;;104.47;40.60;;;;;;;5.96;79.84;100084.97;5083173;28;20123;-63
2020/12/09 01:00:31;;;;;;;71.10;28.08;;;;;;;6.06;78.64;100083.25;5082961;28;20229;-63
2020/12/09 01:02:57;;;;;;;57.88;23.40;;;;;;;6.02;77.67;100079.19;5082837;28;20041;-63
2020/12/09 01:05:22;;;;;;;35.33;16.17;;;;;;;6.06;77.22;100084.09;5082972;28;20036;-63
2020/12/09 01:07:48;;;;;;;31.50;15.03;;;;;;;5.82;79.48;100087.84;5083019;28;20040;-63
2020/12/09 01:10:13;;;;;;;27.50;13.63;;;;;;;5.72;80.46;100082.47;5082951;28;20032;-63
2020/12/09 01:12:42;;;;;;;26.23;13.47;;;;;;;5.85;79.32;100087.59;5082905;28;20074;-63
2020/12/09 01:15:08;;;;;;;25.17;13.00;;;;;;;5.84;78.92;100078.03;5082822;28;20028;-63
2020/12/09 01:17:34;;;;;;;23.67;11.93;;;;;;;5.80;78.80;100080.06;5082998;28;20045;-63
2020/12/09 01:20:02;;;;;;;25.33;12.90;;;;;;;6.00;77.89;100060.94;5082736;28;20254;-63
2020/12/09 01:22:27;;;;;;;24.03;12.23;;;;;;;5.96;77.59;100063.94;5082922;28;20039;-63
2020/12/09 01:24:53;;;;;;;25.40;11.93;;;;;;;5.82;78.49;100057.13;5082830;28;20032;-63
2020/12/09 01:27:24;;;;;;;27.20;12.33;;;;;;;5.72;79.31;100051.78;5082665;28;20036;-63
2020/12/09 01:29:51;;;;;;;25.55;12.60;;;;;;;5.57;80.20;100046.94;5082623;28;20344;-63
2020/12/09 01:32:17;;;;;;;25.83;13.10;;;;;;;5.19;81.86;100063.91;5082671;28;20029;-64
2020/12/09 01:34:43;;;;;;;24.03;12.67;;;;;;;5.18;82.49;100056.97;5082612;28;20040;-63
2020/12/09 01:37:08;;;;;;;24.30;12.40;;;;;;;5.27;82.92;100066.78;5082793;28;20337;-64
2020/12/09 01:39:34;;;;;;;26.53;12.80;;;;;;;5.36;81.97;100055.56;5083160;28;20033;-63
2020/12/09 01:41:59;;;;;;;25.63;12.77;;;;;;;5.62;80.81;100044.78;5082657;28;20032;-63
2020/12/09 01:44:24;;;;;;;26.03;12.90;;;;;;;5.66;80.78;100049.66;5083081;28;20037;-63
2020/12/09 01:46:52;;;;;;;26.93;13.23;;;;;;;5.58;81.21;100053.84;5082629;28;20123;-63
2020/12/09 01:49:17;;;;;;;27.63;13.83;;;;;;;5.44;82.50;100053.16;5082445;28;20048;-63
2020/12/09 01:51:43;;;;;;;26.07;13.40;;;;;;;5.38;83.58;100055.44;5082577;28;20268;-63
2020/12/09 01:54:09;;;;;;;26.53;14.13;;;;;;;5.57;82.67;100049.56;5082821;28;20066;-64
2020/12/09 01:56:34;;;;;;;30.60;14.67;;;;;;;5.60;83.24;100057.19;5083281;28;20024;-63
2020/12/09 01:58:59;;;;;;;26.60;13.90;;;;;;;5.66;82.97;100054.06;5086568;28;20036;-63
2020/12/09 02:01:25;;;;;;;25.13;13.18;;;;;;;5.76;82.02;100057.63;5086214;28;20052;-63
2020/12/09 02:03:51;;;;;;;24.23;12.95;;;;;;;6.01;81.37;100052.09;5086559;28;20078;-63
2020/12/09 02:06:17;;;;;;;25.48;13.73;;;;;;;5.98;80.81;100047.06;5086364;28;20099;-63
2020/12/09 02:08:44;;;;;;;21.85;12.10;;;;;;;6.24;79.22;100046.72;5086405;28;20103;-63
2020/12/09 02:11:10;;;;;;;27.95;12.93;;;;;;;6.18;79.15;100045.44;5086283;28;20098;-63
2020/12/09 02:13:41;;;;;;;23.25;11.40;;;;;;;6.18;79.09;100050.69;5086011;28;20318;-63
2020/12/09 02:16:07;;;;;;;21.48;12.77;;;;;;;5.96;79.29;100056.03;5086414;28;20043;-63
2020/12/09 02:18:32;;;;;;;21.87;11.37;;;;;;;5.88;79.65;100054.00;5086079;28;20033;-63
2020/12/09 02:20:58;;;;;;;21.75;12.00;;;;;;;5.85;79.57;100050.78;5085954;28;20032;-63
2020/12/09 02:23:23;;;;;;;22.27;11.35;;;;;;;5.71;80.44;100046.66;5086072;28;20036;-63
2020/12/09 02:25:49;;;;;;;25.00;12.20;;;;;;;5.63;81.20;100046.44;5085933;28;20066;-63
2020/12/09 02:28:15;;;;;;;22.52;11.23;;;;;;;5.66;81.95;100048.81;5085773;28;20036;-63
2020/12/09 02:30:40;;;;;;;22.40;10.73;;;;;;;5.79;81.42;100057.38;5085774;28;20024;-63
2020/12/09 02:33:06;;;;;;;21.33;10.82;;;;;;;5.77;81.09;100054.03;5085717;28;20036;-63
2020/12/09 02:35:31;;;;;;;20.42;11.30;;;;;;;5.76;81.96;100057.63;5086064;28;20017;-63
2020/12/09 02:37:58;;;;;;;22.77;10.57;;;;;;;5.80;81.17;100050.34;5085892;28;20366;-63
2020/12/09 02:40:23;;;;;;;21.50;10.23;;;;;;;5.91;81.31;100061.69;5085603;28;20024;-63
2020/12/09 02:42:49;;;;;;;20.75;10.40;;;;;;;5.86;80.86;100063.81;5085566;28;20344;-63
2020/12/09 02:45:15;;;;;;;21.27;10.38;;;;;;;6.10;80.74;100063.63;5085536;28;20020;-63
2020/12/09 02:47:40;;;;;;;20.60;10.73;;;;;;;6.00;80.93;100066.19;5085590;28;20213;-63
2020/12/09 02:50:06;;;;;;;22.92;10.98;;;;;;;6.13;80.64;100054.66;5085244;28;20044;-63
2020/12/09 02:52:31;;;;;;;19.52;9.82;;;;;;;6.20;80.07;100056.66;5085557;28;20052;-63
2020/12/09 02:54:57;;;;;;;19.38;10.20;;;;;;;6.26;79.59;100057.97;5085260;28;20020;-63
2020/12/09 02:57:22;;;;;;;19.45;9.60;;;;;;;6.26;79.94;100063.25;5085211;28;20028;-63
2020/12/09 02:59:48;;;;;;;19.55;9.23;;;;;;;6.25;79.73;100053.69;5085311;28;20013;-63
2020/12/09 03:02:13;;;;;;;17.35;9.75;;;;;;;6.40;79.67;100073.44;5085181;28;20265;-63
2020/12/09 03:04:38;;;;;;;18.35;9.85;;;;;;;6.36;79.80;100070.25;5085595;28;20340;-63
2020/12/09 03:07:04;;;;;;;20.92;10.05;;;;;;;6.35;79.56;100052.78;5085233;28;20218;-63
2020/12/09 03:09:29;;;;;;;16.05;9.07;;;;;;;6.66;76.81;100066.84;5084392;28;20048;-63
2020/12/09 03:11:55;;;;;;;16.95;9.43;;;;;;;6.49;77.49;100072.69;5085091;28;20087;-63
2020/12/09 03:14:20;;;;;;;18.45;8.93;;;;;;;6.46;77.71;100067.69;5085352;28;20032;-63
2020/12/09 03:16:46;;;;;;;18.15;9.45;;;;;;;6.30;78.74;100065.50;5084979;28;20016;-63
2020/12/09 03:19:11;;;;;;;16.33;9.35;;;;;;;6.23;79.77;100069.56;5085248;28;20095;-63
2020/12/09 03:21:40;;;;;;;17.42;8.57;;;;;;;6.20;79.95;100067.19;5083850;28;20099;-63
2020/12/09 03:24:14;;;;;;;21.80;9.68;;;;;;;6.36;79.59;100066.78;5085178;28;20309;-63
2020/12/09 03:26:40;;;;;;;19.65;9.32;;;;;;;6.29;79.08;100069.09;5084744;28;20091;-63
2020/12/09 03:29:05;;;;;;;16.20;8.93;;;;;;;6.15;80.31;100068.53;5084876;28;20103;-63
2020/12/09 03:31:31;;;;;;;17.23;9.07;;;;;;;6.23;80.25;100072.19;5084889;28;20135;-63
2020/12/09 03:33:56;;;;;;;19.48;9.88;;;;;;;6.31;79.97;100076.84;5084802;28;20248;-63
2020/12/09 03:36:22;;;;;;;21.95;10.00;;;;;;;6.34;80.28;100080.06;5084684;28;20195;-63
2020/12/09 03:38:47;;;;;;;23.55;10.48;;;;;;;6.38;80.58;100083.28;5084712;28;20278;-63
2020/12/09 03:41:13;;;;;;;23.20;10.93;;;;;;;6.35;80.57;100080.91;5084494;28;20202;-63
2020/12/09 03:43:38;;;;;;;20.95;10.20;;;;;;;6.43;80.14;100072.38;5084790;28;20032;-63
2020/12/09 03:46:04;;;;;;;19.55;9.25;;;;;;;6.62;78.75;100078.59;5084403;28;20035;-63
2020/12/09 03:48:29;;;;;;;20.52;9.77;;;;;;;6.69;78.37;100071.03;5084153;28;20071;-63
2020/12/09 03:50:55;;;;;;;17.83;9.27;;;;;;;6.35;79.10;100060.69;5084663;28;20025;-63
2020/12/09 03:53:21;;;;;;;20.80;10.15;;;;;;;6.37;79.58;100063.19;5084401;28;20043;-63
2020/12/09 03:55:50;;;;;;;20.83;9.85;;;;;;;6.22;79.80;100069.69;5084673;28;20192;-63
2020/12/09 03:58:15;;;;;;;19.45;9.48;;;;;;;6.21;80.53;100078.53;5084107;28;20338;-63
2020/12/09 04:00:42;;;;;;;20.45;11.32;;;;;;;6.16;79.79;100070.19;5083948;28;20036;-63
2020/12/09 04:03:07;;;;;;;22.58;11.82;;;;;;;6.08;80.53;100083.97;5083859;28;20036;-63
2020/12/09 04:05:33;;;;;;;39.78;25.13;;;;;;;6.06;80.14;100086.72;5084087;28;20026;-63
2020/12/09 04:07:58;;;;;;;47.70;27.53;;;;;;;6.02;80.38;100084.47;5083882;28;20024;-63
2020/12/09 04:10:23;;;;;;;33.47;18.77;;;;;;;5.82;81.17;100088.66;5083946;28;20032;-63
2020/12/09 04:12:49;;;;;;;26.53;15.20;;;;;;;5.86;81.94;100097.97;5083854;28;20260;-63
2020/12/09 04:15:14;;;;;;;32.78;17.63;;;;;;;5.71;82.66;100097.41;5083805;28;20325;-63
2020/12/09 04:17:40;;;;;;;28.53;17.07;;;;;;;5.47;82.91;100091.47;5083800;28;20199;-63
2020/12/09 04:20:06;;;;;;;26.83;13.17;;;;;;;5.34;82.93;100093.41;5083213;28;20223;-63
2020/12/09 04:22:31;;;;;;;14.00;7.47;;;;;;;5.22;82.71;100089.09;5083994;28;20024;-63
2020/12/09 04:24:57;;;;;;;12.00;6.30;;;;;;;5.05;83.14;100067.59;5083524;28;20040;-63
2020/12/09 04:27:22;;;;;;;15.77;6.73;;;;;;;4.91;83.96;100067.84;5083459;28;20032;-63
2020/12/09 04:29:48;;;;;;;11.48;5.82;;;;;;;4.86;84.25;100071.75;5083278;28;20028;-63
2020/12/09 04:32:13;;;;;;;12.87;6.13;;;;;;;4.84;84.83;100069.25;5083499;28;20116;-63
2020/12/09 04:34:39;;;;;;;10.73;6.30;;;;;;;4.87;84.53;100084.75;5083859;28;20309;-63
2020/12/09 04:37:05;;;;;;;10.90;6.37;;;;;;;5.09;84.33;100078.69;5083368;28;20337;-63
2020/12/09 04:39:30;;;;;;;13.97;7.10;;;;;;;5.03;84.28;100087.88;5083723;28;20158;-63
2020/12/09 04:41:56;;;;;;;14.90;7.60;;;;;;;4.86;84.84;100082.25;5083267;28;20056;-63
2020/12/09 04:44:23;;;;;;;15.67;8.43;;;;;;;5.02;85.84;100103.75;5083633;28;20062;-63
2020/12/09 04:46:50;;;;;;;17.23;9.10;;;;;;;5.17;84.89;100091.22;5083345;28;20056;-63
2020/12/09 04:49:19;;;;;;;11.40;6.67;;;;;;;5.31;82.92;100094.47;5083149;28;20037;-63
2020/12/09 04:52:25;;;;;;;12.77;7.00;;;;;;;5.23;82.77;100096.88;5082016;28;20024;-63
2020/12/09 04:54:53;;;;;;;14.57;8.10;;;;;;;5.16;83.54;100092.19;5081855;28;20044;-63
2020/12/09 04:57:27;;;;;;;17.97;8.73;;;;;;;5.16;83.39;100094.81;5082954;28;20032;-63
2020/12/09 04:59:59;;;;;;;;;;;;;;;5.19;83.05;100089.31;5083405;28;20089;-63
2020/12/09 05:02:43;;;;;;;12.73;7.23;;;;;;;5.06;84.34;100081.56;5083266;28;19915;-63
2020/12/09 05:05:16;;;;;;;16.73;7.80;;;;;;;5.10;83.93;100083.00;5081793;28;20058;-63
2020/12/09 05:07:47;;;;;;;19.00;8.30;;;;;;;5.05;84.38;100085.97;5083207;28;20036;-63
2020/12/09 05:10:21;;;;;;;17.20;9.37;;;;;;;5.00;85.18;100085.50;5082831;28;20229;-63
2020/12/09 05:12:49;;;;;;;11.77;6.18;;;;;;;5.04;84.83;100091.34;5083103;28;20099;-63
2020/12/09 05:15:18;;;;;;;15.97;7.30;;;;;;;5.18;83.95;100087.66;5082911;28;20070;-63
2020/12/09 05:18:07;;;;;;;14.70;8.00;;;;;;;5.09;84.15;100089.19;5081833;28;20056;-63
2020/12/09 05:20:38;;;;;;;12.97;6.43;;;;;;;5.05;84.00;100093.00;5083070;28;20309;-63
2020/12/09 05:23:09;;;;;;;16.33;8.00;;;;;;;5.09;84.19;100087.41;5082873;28;20072;-63
2020/12/09 05:25:36;;;;;;;14.67;7.47;;;;;;;5.10;84.01;100085.63;5082849;28;20024;-63
2020/12/09 05:28:03;;;;;;;15.80;8.10;;;;;;;5.06;83.89;100082.38;5082722;28;20293;-62
2020/12/09 05:30:48;;;;;;;17.87;8.10;;;;;;;5.07;84.39;100070.94;5082756;28;20040;-63
2020/12/09 05:33:19;;;;;;;19.87;9.00;;;;;;;4.80;84.50;100079.16;5085963;28;20047;-63
2020/12/09 05:35:55;;;;;;;17.13;7.97;;;;;;;4.76;84.76;100079.50;5086993;28;20043;-63
2020/12/09 05:38:21;;;;;;;20.90;9.47;;;;;;;4.84;85.09;100071.88;5086994;28;20040;-63
2020/12/09 05:40:47;;;;;;;23.03;11.53;;;;;;;4.93;84.64;100078.22;5086774;28;20036;-63
2020/12/09 05:43:13;;;;;;;20.30;8.77;;;;;;;4.85;84.92;100086.66;5085632;28;20221;-63
2020/12/09 05:45:40;;;;;;;12.27;6.50;;;;;;;5.05;84.35;100085.13;5086818;28;20043;-63
2020/12/09 05:48:18;;;;;;;14.90;7.40;;;;;;;4.98;84.86;100084.78;5086458;28;20072;-63
2020/12/09 05:50:55;;;;;;;15.40;8.57;;;;;;;5.19;84.50;100078.81;5086637;28;20071;-63
2020/12/09 05:53:28;;;;;;;16.07;8.17;;;;;;;5.14;83.88;100077.38;5086751;28;20028;-63
2020/12/09 05:56:11;;;;;;;16.45;7.53;;;;;;;5.17;83.91;100083.34;5086553;28;20036;-63
2020/12/09 05:58:41;;;;;;;13.57;6.93;;;;;;;5.06;84.01;100076.31;5086513;28;20310;-63
2020/12/09 06:01:20;;;;;;;10.57;6.50;;;;;;;5.03;83.92;100080.00;5086256;28;20043;-63
2020/12/09 06:03:50;;;;;;;16.30;6.87;;;;;;;5.02;84.30;100075.72;5086198;28;20037;-63
2020/12/09 06:06:20;;;;;;;14.47;6.80;;;;;;;5.09;84.02;100082.16;5086386;28;20029;-63
2020/12/09 06:08:53;;;;;;;13.10;6.23;;;;;;;5.04;83.90;100093.97;5086465;28;20213;-63
2020/12/09 06:11:27;;;;;;;13.93;6.60;;;;;;;5.13;83.76;100088.84;5085074;28;20037;-63
2020/12/09 06:13:52;;;;;;;15.40;6.40;;;;;;;5.14;83.65;100080.00;5086396;28;20101;-63
2020/12/09 06:16:20;;;;;;;10.83;6.33;;;;;;;5.21;83.35;100098.78;5086116;28;20028;-63
2020/12/09 06:18:54;;;;;;;10.60;5.37;;;;;;;5.10;83.37;100090.88;5085847;28;20097;-63
2020/12/09 06:21:23;;;;;;;9.30;5.45;;;;;;;5.21;83.21;100097.94;5086300;28;20087;-63
2020/12/09 06:23:53;;;;;;;9.53;5.33;;;;;;;5.21;83.05;100103.19;5086163;28;20083;-63
2020/12/09 06:26:18;;;;;;;9.53;4.87;;;;;;;5.18;82.43;100098.16;5084762;28;20028;-63
2020/12/09 06:28:50;;;;;;;9.90;5.97;;;;;;;5.16;83.18;100106.13;5085820;28;20035;-63
2020/12/09 06:31:18;;;;;;;14.93;6.07;;;;;;;5.24;82.97;100114.28;5085748;28;20321;-63
2020/12/09 06:33:52;;;;;;;12.67;6.50;;;;;;;5.19;83.41;100107.69;5085578;28;20036;-63
2020/12/09 06:36:20;;;;;;;15.30;7.60;;;;;;;5.11;83.12;100108.28;5085825;28;20028;-63
2020/12/09 06:39:04;;;;;;;13.87;7.00;;;;;;;5.26;83.67;100114.16;5085907;28;20271;-63
2020/12/09 06:41:30;;;;;;;12.95;7.50;;;;;;;5.26;83.01;100107.13;5085611;28;20040;-63
2020/12/09 06:44:10;;;;;;;14.37;7.00;;;;;;;5.04;83.50;100097.41;5085758;28;20044;-63
2020/12/09 06:46:38;;;;;;;15.47;7.60;;;;;;;4.98;83.34;100090.03;5085690;28;20040;-63
2020/12/09 06:49:04;;;;;;;13.67;6.80;;;;;;;5.00;84.32;100090.75;5085273;28;20040;-63
2020/12/09 06:51:38;;;;;;;18.43;7.97;;;;;;;4.97;85.48;100090.97;5085750;28;20032;-63
2020/12/09 06:54:13;;;;;;;21.67;9.90;;;;;;;4.94;85.88;100090.38;5085342;28;20036;-63
2020/12/09 06:56:38;;;;;;;19.90;9.23;;;;;;;4.89;85.06;100095.13;5085416;28;20264;-63
2020/12/09 06:59:24;;;;;;;17.97;9.47;;;;;;;5.05;85.56;100088.59;5085463;28;20099;-63
2020/12/09 07:02:04;;;;;;;19.63;8.73;;;;;;;5.04;84.95;100081.69;5085145;28;20040;-63
2020/12/09 07:04:54;;;;;;;18.10;7.67;;;;;;;5.05;85.36;100083.34;5085644;28;20035;-63
2020/12/09 07:07:35;;;;;;;18.03;8.73;;;;;;;5.07;85.15;100099.81;5083975;28;20353;-63
2020/12/09 07:10:19;;;;;;;20.37;9.43;;;;;;;5.11;85.09;100088.13;5085254;28;20036;-63
2020/12/09 07:12:57;;;;;;;21.33;8.80;;;;;;;5.29;84.65;100091.13;5085471;28;20313;-63
2020/12/09 07:15:23;;;;;;;23.63;9.87;;;;;;;5.28;84.35;100099.97;5085303;28;20035;-63
2020/12/09 07:17:48;;;;;;;21.67;8.70;;;;;;;5.29;84.70;100093.75;5084918;28;20091;-63
2020/12/09 07:20:14;;;;;;;21.93;10.47;;;;;;;5.23;84.93;100109.16;5084396;28;20324;-62
2020/12/09 07:22:39;;;;;;;26.35;10.30;;;;;;;5.38;85.11;100103.53;5084025;28;20059;-63
2020/12/09 07:25:05;;;;;;;20.20;8.60;;;;;;;5.47;84.45;100114.28;5084510;28;20099;-63
2020/12/09 07:27:34;;;;;;;18.17;8.00;;;;;;;5.48;84.38;100115.94;5084481;28;20043;-63
2020/12/09 07:30:02;;;;;;;20.47;8.70;;;;;;;5.37;84.78;100117.63;5084400;28;20352;-63
2020/12/09 07:32:28;;;;;;;17.47;8.20;;;;;;;5.46;83.07;100123.94;5084506;28;20277;-63
2020/12/09 07:34:54;;;;;;;14.57;7.33;;;;;;;5.43;83.14;100118.94;5084339;28;20100;-63
2020/12/09 07:37:22;;;;;;;17.03;7.83;;;;;;;5.35;83.29;100114.28;5084364;28;20032;-63
2020/12/09 07:39:52;;;;;;;20.97;8.70;;;;;;;5.40;83.36;100092.91;5084533;28;20028;-63
2020/12/09 07:42:21;;;;;;;18.00;8.30;;;;;;;5.25;84.00;100068.69;5084063;28;20047;-63
2020/12/09 07:44:48;;;;;;;16.67;7.90;;;;;;;5.20;84.74;100091.84;5064251;28;20109;-62
2020/12/09 07:47:21;;;;;;;18.30;8.70;;;;;;;5.17;84.62;100093.84;5079802;28;20229;-63
2020/12/09 07:49:51;;;;;;;18.90;8.75;;;;;;;5.06;84.34;100090.25;5063926;28;20445;-62
2020/12/09 07:52:22;;;;;;;20.57;9.37;;;;;;;5.19;84.50;100105.06;5074304;28;20032;-63
2020/12/09 07:54:50;;;;;;;19.27;9.63;;;;;;;5.15;84.83;100104.47;5083564;28;20024;-62
2020/12/09 07:57:15;;;;;;;19.97;10.17;;;;;;;5.16;83.66;100102.69;5083902;28;20317;-62
2020/12/09 07:59:41;;;;;;;18.50;8.70;;;;;;;5.11;83.62;100108.28;5083854;28;20047;-63
2020/12/09 08:02:19;;;;;;;20.33;9.90;;;;;;;5.18;83.76;100111.28;5083847;28;20040;-62
2020/12/09 08:04:46;;;;;;;16.43;7.43;;;;;;;5.11;84.15;100111.75;5083727;28;20056;-62
2020/12/09 08:07:16;;;;;;;25.93;9.57;;;;;;;5.08;85.19;100098.84;5083779;28;20337;-63
2020/12/09 08:09:41;;;;;;;17.47;8.90;;;;;;;5.04;84.33;100101.84;5083194;28;20036;-63
2020/12/09 08:12:07;;;;;;;22.43;10.47;;;;;;;5.09;85.45;100103.16;5083840;28;20088;-63
2020/12/09 08:14:32;;;;;;;18.67;9.47;;;;;;;5.10;84.83;100107.44;5083926;28;20020;-62
2020/12/09 08:16:58;;;;;;;19.43;9.27;;;;;;;5.10;84.57;100111.88;5083707;28;20341;-62
2020/12/09 08:19:23;;;;;;;21.17;11.07;;;;;;;5.20;85.41;100114.63;5083904;28;20025;-62
2020/12/09 08:22:06;;;;;;;25.83;10.33;;;;;;;5.24;84.87;100116.91;5083532;28;20024;-63
2020/12/09 08:24:31;;;;;;;18.63;8.97;;;;;;;5.08;84.87;100109.34;5083781;28;20035;-63
2020/12/09 08:26:57;;;;;;;22.30;10.17;;;;;;;5.02;85.80;100104.56;5083339;28;20020;-63
2020/12/09 08:29:22;;;;;;;23.50;11.43;;;;;;;5.08;85.88;100101.47;5083741;28;20028;-63
2020/12/09 08:32:01;;;;;;;22.03;10.33;;;;;;;5.14;85.75;100093.13;5083603;28;20066;-63
2020/12/09 08:34:26;;;;;;;19.17;9.90;;;;;;;5.14;85.04;100092.28;5083659;28;20043;-62
2020/12/09 08:36:52;;;;;;;20.03;9.47;;;;;;;5.12;85.32;100094.22;5083680;28;20249;-63
2020/12/09 08:39:17;;;;;;;21.90;10.23;;;;;;;5.17;85.67;100097.31;5083682;28;20393;-62
2020/12/09 08:41:45;;;;;;;20.63;10.37;;;;;;;5.02;85.76;100082.75;5083157;28;20230;-63
2020/12/09 08:44:10;;;;;;;21.23;9.83;;;;;;;5.05;86.08;100093.00;5083034;28;20050;-62
2020/12/09 08:46:36;;;;;;;23.90;11.47;;;;;;;5.25;86.55;100088.88;5083082;28;20092;-63
2020/12/09 08:49:03;;;;;;;22.83;10.53;;;;;;;5.18;86.89;100096.34;5082837;28;20041;-63
2020/12/09 08:51:33;;;;;;;22.17;10.80;;;;;;;5.07;86.81;100091.94;5083068;28;20314;-63
2020/12/09 08:54:01;;;;;;;21.83;11.03;;;;;;;5.07;87.08;100091.09;5083181;28;20101;-63
2020/12/09 08:56:27;;;;;;;19.20;9.63;;;;;;;5.11;87.11;100079.41;5061705;28;20374;-62
2020/12/09 08:58:53;;;;;;;18.90;9.70;;;;;;;5.14;87.22;100079.19;5063923;28;20131;-63
2020/12/09 09:01:18;;;;;;;23.03;11.17;;;;;;;5.08;87.97;100075.22;5082864;28;20041;-62
2020/12/09 09:03:46;;;;;;;27.20;10.57;;;;;;;5.13;88.63;100077.50;5082973;28;20233;-63
2020/12/09 09:06:11;;;;;;;28.33;12.40;;;;;;;5.20;87.86;100091.00;5082190;28;20032;-63
2020/12/09 09:08:36;;;;;;;29.63;12.57;;;;;;;5.17;88.23;100078.09;5081714;28;20085;-63
2020/12/09 09:11:02;;;;;;;23.60;12.53;;;;;;;5.23;87.17;100078.50;5082899;28;20024;-63
2020/12/09 09:13:27;;;;;;;24.57;11.93;;;;;;;5.20;89.48;100083.09;5081380;28;20044;-63
2020/12/09 09:15:53;;;;;;;26.40;12.93;;;;;;;5.25;88.90;100081.81;5082922;28;20029;-63
2020/12/09 09:18:18;;;;;;;24.00;12.20;;;;;;;5.30;88.07;100078.84;5082996;28;20043;-63
2020/12/09 09:20:44;;;;;;;30.33;13.80;;;;;;;5.44;87.99;100066.28;5083006;28;20028;-63
2020/12/09 09:23:09;;;;;;;36.27;13.83;;;;;;;5.38;88.40;100065.94;5082791;28;20104;-63
2020/12/09 09:25:35;;;;;;;37.77;15.37;;;;;;;5.36;89.25;100058.19;5082650;28;20081;-62
2020/12/09 09:28:01;;;;;;;44.10;17.45;;;;;;;5.51;89.01;100052.69;5082547;28;20040;-63
2020/12/09 09:30:27;;;;;;;32.10;14.97;;;;;;;5.53;88.96;100061.25;5082713;28;20042;-63
2020/12/09 09:32:52;;;;;;;42.93;15.87;;;;;;;5.55;88.40;100062.81;5082588;28;20040;-63
2020/12/09 09:35:19;;;;;;;41.20;15.70;;;;;;;5.56;89.36;100059.22;5082874;28;20028;-63
2020/12/09 09:37:44;;;;;;;34.90;14.93;;;;;;;5.54;89.59;100055.91;5082250;28;20095;-62
2020/12/09 09:40:11;;;;;;;44.33;16.63;;;;;;;5.48;90.84;100040.63;5082376;28;20031;-62
2020/12/09 09:42:37;;;;;;;44.90;16.40;;;;;;;5.54;91.50;100044.56;5082828;28;20209;-63
2020/12/09 09:45:06;;;;;;;44.03;15.13;;;;;;;5.60;90.00;100042.25;5080828;28;20391;-63
2020/12/09 09:47:31;;;;;;;40.43;14.57;;;;;;;5.62;91.60;100035.09;5082202;28;20078;-63
2020/12/09 09:49:57;;;;;;;45.57;15.30;;;;;;;5.51;90.30;100031.66;5082100;28;20211;-63
2020/12/09 09:52:22;;;;;;;37.33;14.27;;;;;;;5.53;91.42;100020.06;5062397;28;20100;-63
2020/12/09 09:54:47;;;;;;;34.70;12.97;;;;;;;5.50;91.05;100014.22;5062262;28;20198;-63
2020/12/09 09:57:13;;;;;;;40.30;15.87;;;;;;;5.46;90.66;100013.66;5062245;28;20272;-63
2020/12/09 09:59:38;;;;;;;39.27;13.43;;;;;;;5.42;90.96;100022.72;5062426;28;20246;-63
2020/12/09 10:02:04;;;;;;;38.90;12.70;;;;;;;5.52;90.55;100028.06;5062171;28;20028;-62
2020/12/09 10:04:29;;;;;;;39.77;14.63;;;;;;;5.59;91.46;100030.09;5062617;28;20033;-62
2020/12/09 10:06:55;;;;;;;36.30;14.67;;;;;;;5.64;90.59;100021.84;5062284;28;20029;-63
2020/12/09 10:09:20;;;;;;;44.77;15.67;;;;;;;5.63;90.67;100020.16;5062592;28;20341;-63
2020/12/09 10:11:46;;;;;;;42.50;14.53;;;;;;;5.67;90.50;100011.09;5062108;28;20029;-63
2020/12/09 10:14:12;;;;;;;45.77;16.93;;;;;;;5.66;91.62;100009.41;5062488;28;20112;-63
2020/12/09 10:16:43;;;;;;;41.87;15.40;;;;;;;5.55;90.21;99993.69;5062186;28;20040;-63
2020/12/09 10:19:09;;;;;;;45.17;15.43;;;;;;;5.60;90.98;99986.28;5065347;28;20314;-63
2020/12/09 10:21:35;;;;;;;42.57;16.73;;;;;;;5.62;91.38;99990.44;5065793;28;20029;-62
2020/12/09 10:24:02;;;;;;;48.93;16.63;;;;;;;5.57;91.58;99992.59;5064434;28;20159;-62
2020/12/09 10:26:31;;;;;;;47.07;16.83;;;;;;;5.67;91.37;99985.66;5065707;28;20037;-63
2020/12/09 10:29:01;;;;;;;51.37;15.80;;;;;;;5.61;91.49;99975.63;5065815;28;20322;-63
2020/12/09 10:31:40;;;;;;;44.43;17.17;;;;;;;5.63;92.44;99981.59;5065639;28;20048;-62
2020/12/09 10:34:07;;;;;;;68.07;20.37;;;;;;;5.63;92.05;99975.50;5065487;28;20148;-63
2020/12/09 10:36:34;;;;;;;56.20;19.57;;;;;;;5.63;92.83;99965.84;5065592;28;20352;-62
2020/12/09 10:39:00;;;;;;;65.90;21.13;;;;;;;5.58;92.68;99954.03;5065737;28;20041;-63
2020/12/09 10:41:25;;;;;;;62.33;21.80;;;;;;;5.51;93.31;99943.19;5065462;28;20273;-63
2020/12/09 10:43:52;;;;;;;62.80;23.00;;;;;;;5.51;93.09;99934.50;5065515;28;20048;-62
2020/12/09 10:46:19;;;;;;;53.50;22.17;;;;;;;5.44;92.50;99932.34;5065421;28;20326;-63
2020/12/09 10:48:45;;;;;;;55.47;19.50;;;;;;;5.50;92.98;99933.66;5065078;28;20041;-62
2020/12/09 10:51:10;;;;;;;62.40;22.43;;;;;;;5.56;93.02;99927.06;5075379;28;20043;-62
2020/12/09 10:53:36;;;;;;;64.30;22.73;;;;;;;5.59;92.88;99937.31;5085382;28;20089;-62
2020/12/09 10:56:01;;;;;;;58.43;22.07;;;;;;;5.61;93.26;99932.78;5085344;28;20040;-63
2020/12/09 10:58:28;;;;;;;66.60;20.63;;;;;;;5.46;92.42;99934.84;5085133;28;20134;-63
2020/12/09 11:00:54;;;;;;;62.73;21.40;;;;;;;5.41;93.15;99924.72;5085349;28;20048;-62
2020/12/09 11:03:20;;;;;;;61.80;21.07;;;;;;;5.49;92.96;99926.72;5085232;28;20067;-63
2020/12/09 11:05:46;;;;;;;69.93;24.97;;;;;;;5.62;93.42;99932.66;5085040;28;20334;-62
2020/12/09 11:08:12;;;;;;;76.37;24.57;;;;;;;5.53;93.23;99943.06;5085275;28;20047;-63
2020/12/09 11:10:38;;;;;;;71.60;24.30;;;;;;;5.43;93.68;99943.81;5085108;28;20066;-62
2020/12/09 11:13:03;;;;;;;73.87;23.37;;;;;;;5.39;93.37;99926.66;5084984;28;20033;-62
2020/12/09 11:15:29;;;;;;;70.90;22.30;;;;;;;5.30;93.97;99930.03;5084984;28;20043;-63
2020/12/09 11:17:55;;;;;;;66.80;22.97;;;;;;;5.24;94.17;99913.94;5084728;28;20060;-63
2020/12/09 11:20:20;;;;;;;76.17;26.37;;;;;;;5.31;94.40;99933.47;5084780;28;20032;-62
2020/12/09 11:22:45;;;;;;;90.67;29.30;;;;;;;5.16;94.81;99937.31;5084835;28;20086;-62
2020/12/09 11:25:11;;;;;;;84.83;30.50;;;;;;;5.18;95.14;99930.97;5084853;28;20028;-62